sensor_id;sensor_type;location;lat;lon;timestamp;P1;durP1;ratioP1;P2;durP2;ratioP2
20344;SDS011;10330;48.816;9.278;2022-11-20T00:00:11;15.30;;;6.80;;
20344;SDS011;10330;48.816;9.278;2022-11-20T00:02:38;11.55;;;6.50;;
20344;SDS011;10330;48.816;9.278;2022-11-20T00:05:04;11.10;;;6.03;;
20344;SDS011;10330;48.816;9.278;2022-11-20T00:07:31;11.65;;;6.50;;
20344;SDS011;10330;48.816;9.278;2022-11-20T00:09:57;14.45;;;6.82;;
20344;SDS011;10330;48.816;9.278;2022-11-20T00:12:27;14.63;;;7.07;;
20344;SDS011;10330;48.816;9.278;2022-11-20T00:14:53;10.02;;;6.00;;
20344;SDS011;10330;48.816;9.278;2022-11-20T00:17:19;11.70;;;6.53;;
20344;SDS011;10330;48.816;9.278;2022-11-20T00:19:45;9.43;;;6.13;;
20344;SDS011;10330;48.816;9.278;2022-11-20T00:22:11;14.00;;;7.00;;
20344;SDS011;10330;48.816;9.278;2022-11-20T00:24:38;12.30;;;6.97;;
20344;SDS011;10330;48.816;9.278;2022-11-20T00:27:04;10.63;;;6.32;;
20344;SDS011;10330;48.816;9.278;2022-11-20T00:29:30;28.67;;;12.70;;
20344;SDS011;10330;48.816;9.278;2022-11-20T00:31:57;13.02;;;8.07;;
20344;SDS011;10330;48.816;9.278;2022-11-20T00:34:23;11.57;;;6.75;;
20344;SDS011;10330;48.816;9.278;2022-11-20T00:36:49;14.20;;;8.05;;
20344;SDS011;10330;48.816;9.278;2022-11-20T00:39:15;14.10;;;7.10;;
20344;SDS011;10330;48.816;9.278;2022-11-20T00:41:42;13.27;;;6.53;;
20344;SDS011;10330;48.816;9.278;2022-11-20T00:44:08;19.13;;;8.48;;
20344;SDS011;10330;48.816;9.278;2022-11-20T00:46:34;20.48;;;8.23;;
20344;SDS011;10330;48.816;9.278;2022-11-20T00:49:00;20.30;;;8.10;;
20344;SDS011;10330;48.816;9.278;2022-11-20T00:51:27;11.55;;;7.13;;
20344;SDS011;10330;48.816;9.278;2022-11-20T00:53:57;11.32;;;7.22;;
20344;SDS011;10330;48.816;9.278;2022-11-20T00:56:23;16.02;;;7.30;;
20344;SDS011;10330;48.816;9.278;2022-11-20T00:58:49;10.93;;;7.07;;
20344;SDS011;10330;48.816;9.278;2022-11-20T01:01:17;14.02;;;7.93;;
20344;SDS011;10330;48.816;9.278;2022-11-20T01:03:46;11.77;;;6.35;;
20344;SDS011;10330;48.816;9.278;2022-11-20T01:06:20;10.82;;;6.05;;
20344;SDS011;10330;48.816;9.278;2022-11-20T01:08:48;10.38;;;6.43;;
20344;SDS011;10330;48.816;9.278;2022-11-20T01:11:17;10.20;;;6.35;;
20344;SDS011;10330;48.816;9.278;2022-11-20T01:13:45;13.40;;;5.90;;
20344;SDS011;10330;48.816;9.278;2022-11-20T01:16:19;10.05;;;6.20;;
20344;SDS011;10330;48.816;9.278;2022-11-20T01:18:49;11.18;;;6.35;;
20344;SDS011;10330;48.816;9.278;2022-11-20T01:21:18;10.15;;;6.20;;
20344;SDS011;10330;48.816;9.278;2022-11-20T01:23:46;12.45;;;6.10;;
20344;SDS011;10330;48.816;9.278;2022-11-20T01:26:15;6.38;;;5.30;;
20344;SDS011;10330;48.816;9.278;2022-11-20T01:28:43;9.57;;;5.65;;
20344;SDS011;10330;48.816;9.278;2022-11-20T01:33:46;14.00;;;6.93;;
20344;SDS011;10330;48.816;9.278;2022-11-20T01:36:14;15.55;;;6.95;;
20344;SDS011;10330;48.816;9.278;2022-11-20T01:38:42;12.93;;;7.28;;
20344;SDS011;10330;48.816;9.278;2022-11-20T01:41:09;15.13;;;8.48;;
20344;SDS011;10330;48.816;9.278;2022-11-20T01:43:36;13.25;;;7.45;;
20344;SDS011;10330;48.816;9.278;2022-11-20T01:46:15;10.75;;;6.82;;
20344;SDS011;10330;48.816;9.278;2022-11-20T01:48:48;10.57;;;6.70;;
20344;SDS011;10330;48.816;9.278;2022-11-20T01:51:39;8.90;;;5.03;;
20344;SDS011;10330;48.816;9.278;2022-11-20T01:54:08;6.35;;;3.85;;
20344;SDS011;10330;48.816;9.278;2022-11-20T01:56:40;2.90;;;2.70;;
20344;SDS011;10330;48.816;9.278;2022-11-20T01:59:08;4.03;;;3.63;;
20344;SDS011;10330;48.816;9.278;2022-11-20T02:01:39;5.65;;;3.20;;
20344;SDS011;10330;48.816;9.278;2022-11-20T02:04:05;9.98;;;2.83;;
20344;SDS011;10330;48.816;9.278;2022-11-20T02:06:40;3.10;;;2.88;;
20344;SDS011;10330;48.816;9.278;2022-11-20T02:09:11;2.47;;;2.28;;
20344;SDS011;10330;48.816;9.278;2022-11-20T02:11:37;3.80;;;2.70;;
20344;SDS011;10330;48.816;9.278;2022-11-20T02:14:03;4.10;;;2.67;;
20344;SDS011;10330;48.816;9.278;2022-11-20T02:16:31;5.25;;;2.63;;
20344;SDS011;10330;48.816;9.278;2022-11-20T02:19:04;2.75;;;2.55;;
20344;SDS011;10330;48.816;9.278;2022-11-20T02:24:21;4.80;;;3.97;;
20344;SDS011;10330;48.816;9.278;2022-11-20T02:27:08;6.82;;;2.63;;
20344;SDS011;10330;48.816;9.278;2022-11-20T02:29:40;17.08;;;2.70;;
20344;SDS011;10330;48.816;9.278;2022-11-20T02:32:24;3.38;;;2.58;;
20344;SDS011;10330;48.816;9.278;2022-11-20T02:34:55;4.45;;;2.63;;
20344;SDS011;10330;48.816;9.278;2022-11-20T02:37:22;2.67;;;2.38;;
20344;SDS011;10330;48.816;9.278;2022-11-20T02:39:51;2.53;;;2.30;;
20344;SDS011;10330;48.816;9.278;2022-11-20T02:42:18;5.07;;;2.95;;
20344;SDS011;10330;48.816;9.278;2022-11-20T02:44:44;2.65;;;2.17;;
20344;SDS011;10330;48.816;9.278;2022-11-20T02:47:10;7.38;;;2.38;;
20344;SDS011;10330;48.816;9.278;2022-11-20T02:49:36;2.35;;;2.15;;
20344;SDS011;10330;48.816;9.278;2022-11-20T02:52:02;2.40;;;1.83;;
20344;SDS011;10330;48.816;9.278;2022-11-20T02:54:29;2.78;;;2.08;;
20344;SDS011;10330;48.816;9.278;2022-11-20T02:56:55;2.45;;;2.17;;
20344;SDS011;10330;48.816;9.278;2022-11-20T02:59:21;2.70;;;2.08;;
20344;SDS011;10330;48.816;9.278;2022-11-20T03:01:47;2.97;;;2.30;;
20344;SDS011;10330;48.816;9.278;2022-11-20T03:04:14;3.10;;;2.45;;
20344;SDS011;10330;48.816;9.278;2022-11-20T03:06:40;6.75;;;2.25;;
20344;SDS011;10330;48.816;9.278;2022-11-20T03:09:06;2.10;;;1.80;;
20344;SDS011;10330;48.816;9.278;2022-11-20T03:11:32;3.35;;;2.25;;
20344;SDS011;10330;48.816;9.278;2022-11-20T03:14:01;2.63;;;2.35;;
20344;SDS011;10330;48.816;9.278;2022-11-20T03:16:28;4.93;;;2.40;;
20344;SDS011;10330;48.816;9.278;2022-11-20T03:18:56;3.35;;;2.22;;
20344;SDS011;10330;48.816;9.278;2022-11-20T03:21:22;3.28;;;1.92;;
20344;SDS011;10330;48.816;9.278;2022-11-20T03:23:48;2.60;;;2.40;;
20344;SDS011;10330;48.816;9.278;2022-11-20T03:28:46;2.40;;;2.20;;
20344;SDS011;10330;48.816;9.278;2022-11-20T03:31:24;2.35;;;2.15;;
20344;SDS011;10330;48.816;9.278;2022-11-20T03:33:51;2.17;;;2.05;;
20344;SDS011;10330;48.816;9.278;2022-11-20T03:36:19;4.68;;;2.53;;
20344;SDS011;10330;48.816;9.278;2022-11-20T03:38:46;2.95;;;2.55;;
20344;SDS011;10330;48.816;9.278;2022-11-20T03:41:17;2.50;;;2.28;;
20344;SDS011;10330;48.816;9.278;2022-11-20T03:43:48;2.53;;;2.33;;
20344;SDS011;10330;48.816;9.278;2022-11-20T03:46:19;2.60;;;2.40;;
20344;SDS011;10330;48.816;9.278;2022-11-20T03:48:45;2.40;;;2.22;;
20344;SDS011;10330;48.816;9.278;2022-11-20T03:51:13;5.05;;;2.15;;
20344;SDS011;10330;48.816;9.278;2022-11-20T03:53:41;3.08;;;2.17;;
20344;SDS011;10330;48.816;9.278;2022-11-20T03:56:09;2.40;;;2.20;;
20344;SDS011;10330;48.816;9.278;2022-11-20T03:58:38;3.20;;;2.58;;
20344;SDS011;10330;48.816;9.278;2022-11-20T04:01:11;3.53;;;2.33;;
20344;SDS011;10330;48.816;9.278;2022-11-20T04:03:40;2.10;;;1.88;;
20344;SDS011;10330;48.816;9.278;2022-11-20T04:06:08;3.10;;;2.80;;
20344;SDS011;10330;48.816;9.278;2022-11-20T04:08:36;4.57;;;2.70;;
20344;SDS011;10330;48.816;9.278;2022-11-20T04:11:13;4.72;;;2.75;;
20344;SDS011;10330;48.816;9.278;2022-11-20T04:13:48;2.45;;;2.25;;
20344;SDS011;10330;48.816;9.278;2022-11-20T04:16:17;4.97;;;2.00;;
20344;SDS011;10330;48.816;9.278;2022-11-20T04:18:44;3.70;;;2.10;;
20344;SDS011;10330;48.816;9.278;2022-11-20T04:21:10;2.70;;;2.40;;
20344;SDS011;10330;48.816;9.278;2022-11-20T04:23:37;4.20;;;2.35;;
20344;SDS011;10330;48.816;9.278;2022-11-20T04:26:07;2.38;;;2.22;;
20344;SDS011;10330;48.816;9.278;2022-11-20T04:28:35;3.05;;;2.38;;
20344;SDS011;10330;48.816;9.278;2022-11-20T04:31:03;4.13;;;2.42;;
20344;SDS011;10330;48.816;9.278;2022-11-20T04:33:33;3.22;;;2.33;;
20344;SDS011;10330;48.816;9.278;2022-11-20T04:36:00;4.05;;;2.55;;
20344;SDS011;10330;48.816;9.278;2022-11-20T04:38:33;4.25;;;2.42;;
20344;SDS011;10330;48.816;9.278;2022-11-20T04:41:00;4.38;;;2.35;;
20344;SDS011;10330;48.816;9.278;2022-11-20T04:43:28;3.38;;;2.30;;
20344;SDS011;10330;48.816;9.278;2022-11-20T04:45:55;2.13;;;2.03;;
20344;SDS011;10330;48.816;9.278;2022-11-20T04:48:22;2.80;;;2.13;;
20344;SDS011;10330;48.816;9.278;2022-11-20T04:50:50;2.25;;;2.10;;
20344;SDS011;10330;48.816;9.278;2022-11-20T04:53:17;2.70;;;2.50;;
20344;SDS011;10330;48.816;9.278;2022-11-20T04:55:44;4.72;;;2.95;;
20344;SDS011;10330;48.816;9.278;2022-11-20T04:58:11;5.00;;;2.72;;
20344;SDS011;10330;48.816;9.278;2022-11-20T05:00:38;3.03;;;2.17;;
20344;SDS011;10330;48.816;9.278;2022-11-20T05:03:04;4.47;;;2.72;;
20344;SDS011;10330;48.816;9.278;2022-11-20T05:05:30;5.43;;;2.25;;
20344;SDS011;10330;48.816;9.278;2022-11-20T05:07:58;3.22;;;2.10;;
20344;SDS011;10330;48.816;9.278;2022-11-20T05:10:25;2.50;;;2.10;;
20344;SDS011;10330;48.816;9.278;2022-11-20T05:12:52;2.47;;;2.25;;
20344;SDS011;10330;48.816;9.278;2022-11-20T05:15:18;2.22;;;2.03;;
20344;SDS011;10330;48.816;9.278;2022-11-20T05:17:48;2.95;;;2.75;;
20344;SDS011;10330;48.816;9.278;2022-11-20T05:20:15;3.25;;;2.22;;
20344;SDS011;10330;48.816;9.278;2022-11-20T05:22:41;2.03;;;1.92;;
20344;SDS011;10330;48.816;9.278;2022-11-20T05:25:08;3.13;;;2.45;;
20344;SDS011;10330;48.816;9.278;2022-11-20T05:27:35;3.30;;;2.35;;
20344;SDS011;10330;48.816;9.278;2022-11-20T05:30:01;2.75;;;2.42;;
20344;SDS011;10330;48.816;9.278;2022-11-20T05:32:28;2.47;;;2.28;;
20344;SDS011;10330;48.816;9.278;2022-11-20T05:34:54;5.32;;;2.88;;
20344;SDS011;10330;48.816;9.278;2022-11-20T05:37:20;4.28;;;2.53;;
20344;SDS011;10330;48.816;9.278;2022-11-20T05:39:46;3.78;;;2.42;;
20344;SDS011;10330;48.816;9.278;2022-11-20T05:42:12;2.20;;;2.00;;
20344;SDS011;10330;48.816;9.278;2022-11-20T05:45:00;4.75;;;2.85;;
20344;SDS011;10330;48.816;9.278;2022-11-20T05:47:31;2.47;;;2.28;;
20344;SDS011;10330;48.816;9.278;2022-11-20T05:49:58;3.33;;;2.30;;
20344;SDS011;10330;48.816;9.278;2022-11-20T05:52:24;2.42;;;2.17;;
20344;SDS011;10330;48.816;9.278;2022-11-20T05:54:54;3.42;;;2.15;;
20344;SDS011;10330;48.816;9.278;2022-11-20T05:57:20;2.60;;;2.40;;
20344;SDS011;10330;48.816;9.278;2022-11-20T05:59:46;1.88;;;1.77;;
20344;SDS011;10330;48.816;9.278;2022-11-20T06:02:12;2.70;;;2.45;;
20344;SDS011;10330;48.816;9.278;2022-11-20T06:04:38;2.53;;;2.33;;
20344;SDS011;10330;48.816;9.278;2022-11-20T06:07:05;2.47;;;1.90;;
20344;SDS011;10330;48.816;9.278;2022-11-20T06:09:34;2.30;;;2.10;;
20344;SDS011;10330;48.816;9.278;2022-11-20T06:12:00;4.32;;;2.65;;
20344;SDS011;10330;48.816;9.278;2022-11-20T06:14:26;2.10;;;1.90;;
20344;SDS011;10330;48.816;9.278;2022-11-20T06:16:53;7.10;;;3.08;;
20344;SDS011;10330;48.816;9.278;2022-11-20T06:19:19;2.50;;;2.30;;
20344;SDS011;10330;48.816;9.278;2022-11-20T06:21:47;5.35;;;2.38;;
20344;SDS011;10330;48.816;9.278;2022-11-20T06:24:14;4.68;;;2.20;;
20344;SDS011;10330;48.816;9.278;2022-11-20T06:26:40;2.75;;;2.00;;
20344;SDS011;10330;48.816;9.278;2022-11-20T06:29:06;2.13;;;2.00;;
20344;SDS011;10330;48.816;9.278;2022-11-20T06:31:32;2.22;;;2.13;;
20344;SDS011;10330;48.816;9.278;2022-11-20T06:34:00;2.20;;;2.00;;
20344;SDS011;10330;48.816;9.278;2022-11-20T06:36:27;2.10;;;1.90;;
20344;SDS011;10330;48.816;9.278;2022-11-20T06:38:53;1.92;;;1.80;;
20344;SDS011;10330;48.816;9.278;2022-11-20T06:41:20;2.65;;;2.10;;
20344;SDS011;10330;48.816;9.278;2022-11-20T06:43:47;2.70;;;2.28;;
20344;SDS011;10330;48.816;9.278;2022-11-20T06:46:14;2.08;;;1.98;;
20344;SDS011;10330;48.816;9.278;2022-11-20T06:48:47;3.50;;;1.92;;
20344;SDS011;10330;48.816;9.278;2022-11-20T06:51:14;2.13;;;1.92;;
20344;SDS011;10330;48.816;9.278;2022-11-20T06:53:40;4.13;;;2.38;;
20344;SDS011;10330;48.816;9.278;2022-11-20T06:56:07;2.17;;;2.00;;
20344;SDS011;10330;48.816;9.278;2022-11-20T06:58:34;2.50;;;2.05;;
20344;SDS011;10330;48.816;9.278;2022-11-20T07:01:02;2.28;;;1.90;;
20344;SDS011;10330;48.816;9.278;2022-11-20T07:03:33;3.58;;;2.05;;
20344;SDS011;10330;48.816;9.278;2022-11-20T07:05:59;1.65;;;1.55;;
20344;SDS011;10330;48.816;9.278;2022-11-20T07:08:28;1.88;;;1.77;;
20344;SDS011;10330;48.816;9.278;2022-11-20T07:10:58;4.63;;;2.00;;
20344;SDS011;10330;48.816;9.278;2022-11-20T07:13:28;2.03;;;1.60;;
20344;SDS011;10330;48.816;9.278;2022-11-20T07:15:58;2.25;;;2.05;;
20344;SDS011;10330;48.816;9.278;2022-11-20T07:18:26;1.90;;;1.80;;
20344;SDS011;10330;48.816;9.278;2022-11-20T07:20:52;1.75;;;1.63;;
20344;SDS011;10330;48.816;9.278;2022-11-20T07:23:18;3.17;;;2.03;;
20344;SDS011;10330;48.816;9.278;2022-11-20T07:25:45;4.75;;;2.10;;
20344;SDS011;10330;48.816;9.278;2022-11-20T07:28:11;2.00;;;1.90;;
20344;SDS011;10330;48.816;9.278;2022-11-20T07:30:37;6.05;;;1.95;;
20344;SDS011;10330;48.816;9.278;2022-11-20T07:33:03;3.47;;;1.92;;
20344;SDS011;10330;48.816;9.278;2022-11-20T07:35:30;1.80;;;1.70;;
20344;SDS011;10330;48.816;9.278;2022-11-20T07:37:56;2.63;;;2.40;;
20344;SDS011;10330;48.816;9.278;2022-11-20T07:40:22;3.63;;;2.13;;
20344;SDS011;10330;48.816;9.278;2022-11-20T07:42:52;2.25;;;2.10;;
20344;SDS011;10330;48.816;9.278;2022-11-20T07:45:20;2.13;;;1.92;;
20344;SDS011;10330;48.816;9.278;2022-11-20T07:47:47;3.08;;;1.95;;
20344;SDS011;10330;48.816;9.278;2022-11-20T07:50:14;1.90;;;1.35;;
20344;SDS011;10330;48.816;9.278;2022-11-20T07:52:40;3.42;;;2.00;;
20344;SDS011;10330;48.816;9.278;2022-11-20T07:55:07;2.22;;;2.00;;
20344;SDS011;10330;48.816;9.278;2022-11-20T07:57:34;2.13;;;1.90;;
20344;SDS011;10330;48.816;9.278;2022-11-20T08:00:00;5.38;;;1.98;;
20344;SDS011;10330;48.816;9.278;2022-11-20T08:02:38;4.32;;;2.00;;
20344;SDS011;10330;48.816;9.278;2022-11-20T08:05:07;2.17;;;2.00;;
20344;SDS011;10330;48.816;9.278;2022-11-20T08:07:43;1.92;;;1.67;;
20344;SDS011;10330;48.816;9.278;2022-11-20T08:10:11;2.28;;;2.05;;
20344;SDS011;10330;48.816;9.278;2022-11-20T08:12:46;2.33;;;2.13;;
20344;SDS011;10330;48.816;9.278;2022-11-20T08:15:34;1.90;;;1.80;;
20344;SDS011;10330;48.816;9.278;2022-11-20T08:18:02;2.40;;;1.83;;
20344;SDS011;10330;48.816;9.278;2022-11-20T08:20:30;2.40;;;2.20;;
20344;SDS011;10330;48.816;9.278;2022-11-20T08:22:57;1.70;;;1.60;;
20344;SDS011;10330;48.816;9.278;2022-11-20T08:25:25;4.28;;;2.00;;
20344;SDS011;10330;48.816;9.278;2022-11-20T08:27:52;1.73;;;1.63;;
20344;SDS011;10330;48.816;9.278;2022-11-20T08:30:19;3.13;;;2.03;;
20344;SDS011;10330;48.816;9.278;2022-11-20T08:32:45;2.50;;;2.28;;
20344;SDS011;10330;48.816;9.278;2022-11-20T08:35:11;1.98;;;1.88;;
20344;SDS011;10330;48.816;9.278;2022-11-20T08:37:37;2.00;;;1.90;;
20344;SDS011;10330;48.816;9.278;2022-11-20T08:40:09;1.90;;;1.73;;
20344;SDS011;10330;48.816;9.278;2022-11-20T08:42:36;4.55;;;2.05;;
20344;SDS011;10330;48.816;9.278;2022-11-20T08:45:02;1.17;;;1.17;;
20344;SDS011;10330;48.816;9.278;2022-11-20T08:47:29;1.90;;;1.80;;
20344;SDS011;10330;48.816;9.278;2022-11-20T08:49:55;1.35;;;1.33;;
20344;SDS011;10330;48.816;9.278;2022-11-20T08:52:21;1.48;;;1.40;;
20344;SDS011;10330;48.816;9.278;2022-11-20T08:54:47;1.25;;;1.25;;
20344;SDS011;10330;48.816;9.278;2022-11-20T08:57:13;1.75;;;1.65;;
20344;SDS011;10330;48.816;9.278;2022-11-20T08:59:39;4.43;;;1.67;;
20344;SDS011;10330;48.816;9.278;2022-11-20T09:02:06;1.95;;;1.80;;
20344;SDS011;10330;48.816;9.278;2022-11-20T09:04:32;1.42;;;1.33;;
20344;SDS011;10330;48.816;9.278;2022-11-20T09:06:59;1.58;;;1.48;;
20344;SDS011;10330;48.816;9.278;2022-11-20T09:09:25;1.38;;;1.30;;
20344;SDS011;10330;48.816;9.278;2022-11-20T09:11:52;1.10;;;1.10;;
20344;SDS011;10330;48.816;9.278;2022-11-20T09:14:18;1.80;;;1.70;;
20344;SDS011;10330;48.816;9.278;2022-11-20T09:16:44;1.80;;;1.20;;
20344;SDS011;10330;48.816;9.278;2022-11-20T09:19:11;1.50;;;1.40;;
20344;SDS011;10330;48.816;9.278;2022-11-20T09:21:37;1.50;;;1.40;;
20344;SDS011;10330;48.816;9.278;2022-11-20T09:24:04;1.13;;;1.13;;
20344;SDS011;10330;48.816;9.278;2022-11-20T09:26:30;1.33;;;1.23;;
20344;SDS011;10330;48.816;9.278;2022-11-20T09:28:59;1.83;;;1.00;;
20344;SDS011;10330;48.816;9.278;2022-11-20T09:31:25;1.13;;;1.13;;
20344;SDS011;10330;48.816;9.278;2022-11-20T09:33:51;2.15;;;1.67;;
20344;SDS011;10330;48.816;9.278;2022-11-20T09:36:18;1.67;;;1.30;;
20344;SDS011;10330;48.816;9.278;2022-11-20T09:38:44;2.33;;;1.58;;
20344;SDS011;10330;48.816;9.278;2022-11-20T09:41:23;4.50;;;1.35;;
20344;SDS011;10330;48.816;9.278;2022-11-20T09:44:18;3.55;;;2.88;;
20344;SDS011;10330;48.816;9.278;2022-11-20T09:55:11;1.35;;;1.25;;
20344;SDS011;10330;48.816;9.278;2022-11-20T09:57:40;0.90;;;0.90;;
20344;SDS011;10330;48.816;9.278;2022-11-20T10:00:10;1.17;;;1.13;;
20344;SDS011;10330;48.816;9.278;2022-11-20T10:02:44;0.90;;;0.90;;
20344;SDS011;10330;48.816;9.278;2022-11-20T10:05:44;0.73;;;0.73;;
20344;SDS011;10330;48.816;9.278;2022-11-20T10:08:22;1.02;;;1.02;;
20344;SDS011;10330;48.816;9.278;2022-11-20T10:11:08;1.00;;;0.90;;
20344;SDS011;10330;48.816;9.278;2022-11-20T10:13:48;1.35;;;1.20;;
20344;SDS011;10330;48.816;9.278;2022-11-20T10:21:44;1.13;;;0.70;;
20344;SDS011;10330;48.816;9.278;2022-11-20T10:30:11;1.85;;;1.13;;
20344;SDS011;10330;48.816;9.278;2022-11-20T10:32:40;0.90;;;0.90;;
20344;SDS011;10330;48.816;9.278;2022-11-20T10:38:02;1.48;;;1.00;;
20344;SDS011;10330;48.816;9.278;2022-11-20T10:40:37;3.35;;;1.15;;
20344;SDS011;10330;48.816;9.278;2022-11-20T10:48:16;0.88;;;0.88;;
20344;SDS011;10330;48.816;9.278;2022-11-20T10:50:53;0.50;;;0.50;;
20344;SDS011;10330;48.816;9.278;2022-11-20T10:56:12;1.17;;;1.08;;
20344;SDS011;10330;48.816;9.278;2022-11-20T10:59:06;1.20;;;1.10;;
20344;SDS011;10330;48.816;9.278;2022-11-20T11:01:55;2.13;;;1.92;;
20344;SDS011;10330;48.816;9.278;2022-11-20T11:10:27;1.48;;;1.13;;
20344;SDS011;10330;48.816;9.278;2022-11-20T11:13:02;0.93;;;0.93;;
20344;SDS011;10330;48.816;9.278;2022-11-20T11:18:01;1.23;;;1.17;;
20344;SDS011;10330;48.816;9.278;2022-11-20T11:20:28;1.08;;;1.08;;
20344;SDS011;10330;48.816;9.278;2022-11-20T11:22:58;1.42;;;1.33;;
20344;SDS011;10330;48.816;9.278;2022-11-20T11:30:29;1.70;;;1.42;;
20344;SDS011;10330;48.816;9.278;2022-11-20T11:33:08;0.57;;;0.57;;
20344;SDS011;10330;48.816;9.278;2022-11-20T11:35:46;0.98;;;0.98;;
20344;SDS011;10330;48.816;9.278;2022-11-20T11:38:50;1.20;;;1.10;;
20344;SDS011;10330;48.816;9.278;2022-11-20T11:41:09;1.55;;;1.13;;
20344;SDS011;10330;48.816;9.278;2022-11-20T11:43:50;5.13;;;3.88;;
20344;SDS011;10330;48.816;9.278;2022-11-20T11:46:38;1.77;;;1.65;;
20344;SDS011;10330;48.816;9.278;2022-11-20T11:49:14;1.58;;;1.40;;
20344;SDS011;10330;48.816;9.278;2022-11-20T11:54:14;4.95;;;1.38;;
20344;SDS011;10330;48.816;9.278;2022-11-20T11:57:05;1.20;;;1.17;;
20344;SDS011;10330;48.816;9.278;2022-11-20T12:02:43;0.98;;;0.93;;
20344;SDS011;10330;48.816;9.278;2022-11-20T12:05:20;1.00;;;0.82;;
20344;SDS011;10330;48.816;9.278;2022-11-20T12:16:19;1.13;;;1.10;;
20344;SDS011;10330;48.816;9.278;2022-11-20T12:18:50;1.77;;;1.08;;
20344;SDS011;10330;48.816;9.278;2022-11-20T12:24:13;2.70;;;1.35;;
20344;SDS011;10330;48.816;9.278;2022-11-20T12:47:18;6.63;;;1.20;;
20344;SDS011;10330;48.816;9.278;2022-11-20T12:52:47;5.57;;;1.50;;
20344;SDS011;10330;48.816;9.278;2022-11-20T12:55:41;2.30;;;1.10;;
20344;SDS011;10330;48.816;9.278;2022-11-20T13:01:30;4.05;;;1.50;;
20344;SDS011;10330;48.816;9.278;2022-11-20T13:06:58;3.63;;;1.13;;
20344;SDS011;10330;48.816;9.278;2022-11-20T13:09:27;7.03;;;1.02;;
20344;SDS011;10330;48.816;9.278;2022-11-20T13:14:38;2.58;;;0.82;;
20344;SDS011;10330;48.816;9.278;2022-11-20T13:19:51;1.67;;;1.00;;
20344;SDS011;10330;48.816;9.278;2022-11-20T13:22:27;1.10;;;1.10;;
20344;SDS011;10330;48.816;9.278;2022-11-20T13:24:54;1.70;;;1.30;;
20344;SDS011;10330;48.816;9.278;2022-11-20T13:27:22;0.80;;;0.77;;
20344;SDS011;10330;48.816;9.278;2022-11-20T13:29:59;2.03;;;0.73;;
20344;SDS011;10330;48.816;9.278;2022-11-20T13:32:28;3.30;;;1.00;;
20344;SDS011;10330;48.816;9.278;2022-11-20T13:35:00;1.42;;;0.73;;
20344;SDS011;10330;48.816;9.278;2022-11-20T13:37:35;1.08;;;0.98;;
20344;SDS011;10330;48.816;9.278;2022-11-20T13:42:45;0.93;;;0.88;;
20344;SDS011;10330;48.816;9.278;2022-11-20T13:47:53;2.08;;;1.10;;
20344;SDS011;10330;48.816;9.278;2022-11-20T13:50:21;7.15;;;1.42;;
20344;SDS011;10330;48.816;9.278;2022-11-20T13:56:19;1.25;;;1.25;;
20344;SDS011;10330;48.816;9.278;2022-11-20T14:01:35;3.65;;;2.20;;
20344;SDS011;10330;48.816;9.278;2022-11-20T14:04:09;1.35;;;1.25;;
20344;SDS011;10330;48.816;9.278;2022-11-20T14:06:46;9.57;;;6.15;;
20344;SDS011;10330;48.816;9.278;2022-11-20T14:09:30;3.78;;;2.03;;
20344;SDS011;10330;48.816;9.278;2022-11-20T14:11:58;1.17;;;0.98;;
20344;SDS011;10330;48.816;9.278;2022-11-20T14:14:28;1.15;;;1.10;;
20344;SDS011;10330;48.816;9.278;2022-11-20T14:17:08;0.70;;;0.70;;
20344;SDS011;10330;48.816;9.278;2022-11-20T14:19:46;1.25;;;1.17;;
20344;SDS011;10330;48.816;9.278;2022-11-20T14:22:24;0.82;;;0.82;;
20344;SDS011;10330;48.816;9.278;2022-11-20T14:25:03;1.52;;;1.23;;
20344;SDS011;10330;48.816;9.278;2022-11-20T14:27:38;2.00;;;1.02;;
20344;SDS011;10330;48.816;9.278;2022-11-20T14:30:16;1.13;;;0.80;;
20344;SDS011;10330;48.816;9.278;2022-11-20T14:32:48;1.38;;;1.10;;
20344;SDS011;10330;48.816;9.278;2022-11-20T14:35:26;2.13;;;1.40;;
20344;SDS011;10330;48.816;9.278;2022-11-20T14:37:55;4.40;;;1.75;;
20344;SDS011;10330;48.816;9.278;2022-11-20T14:40:23;2.60;;;1.75;;
20344;SDS011;10330;48.816;9.278;2022-11-20T14:42:59;1.30;;;1.10;;
20344;SDS011;10330;48.816;9.278;2022-11-20T14:45:25;1.23;;;1.17;;
20344;SDS011;10330;48.816;9.278;2022-11-20T14:47:53;0.98;;;0.93;;
20344;SDS011;10330;48.816;9.278;2022-11-20T14:50:23;1.10;;;1.10;;
20344;SDS011;10330;48.816;9.278;2022-11-20T14:52:57;1.25;;;1.20;;
20344;SDS011;10330;48.816;9.278;2022-11-20T14:55:27;1.17;;;1.08;;
20344;SDS011;10330;48.816;9.278;2022-11-20T14:58:18;1.95;;;1.30;;
20344;SDS011;10330;48.816;9.278;2022-11-20T15:01:00;6.63;;;1.30;;
20344;SDS011;10330;48.816;9.278;2022-11-20T15:06:09;1.73;;;1.60;;
20344;SDS011;10330;48.816;9.278;2022-11-20T15:08:37;2.33;;;1.10;;
20344;SDS011;10330;48.816;9.278;2022-11-20T15:11:14;1.20;;;1.17;;
20344;SDS011;10330;48.816;9.278;2022-11-20T15:13:43;3.45;;;0.93;;
20344;SDS011;10330;48.816;9.278;2022-11-20T15:16:19;1.73;;;1.40;;
20344;SDS011;10330;48.816;9.278;2022-11-20T15:18:48;2.75;;;1.35;;
20344;SDS011;10330;48.816;9.278;2022-11-20T15:21:15;1.80;;;1.15;;
20344;SDS011;10330;48.816;9.278;2022-11-20T15:23:43;3.03;;;1.20;;
20344;SDS011;10330;48.816;9.278;2022-11-20T15:26:10;3.67;;;1.52;;
20344;SDS011;10330;48.816;9.278;2022-11-20T15:28:41;1.50;;;1.40;;
20344;SDS011;10330;48.816;9.278;2022-11-20T15:31:13;2.53;;;1.38;;
20344;SDS011;10330;48.816;9.278;2022-11-20T15:33:41;6.32;;;1.52;;
20344;SDS011;10330;48.816;9.278;2022-11-20T15:36:08;1.15;;;1.05;;
20344;SDS011;10330;48.816;9.278;2022-11-20T15:38:35;1.55;;;1.25;;
20344;SDS011;10330;48.816;9.278;2022-11-20T15:41:02;4.35;;;1.70;;
20344;SDS011;10330;48.816;9.278;2022-11-20T15:43:28;6.15;;;1.75;;
20344;SDS011;10330;48.816;9.278;2022-11-20T15:46:02;4.97;;;2.33;;
20344;SDS011;10330;48.816;9.278;2022-11-20T15:48:31;1.42;;;1.33;;
20344;SDS011;10330;48.816;9.278;2022-11-20T15:53:37;2.80;;;2.30;;
20344;SDS011;10330;48.816;9.278;2022-11-20T15:56:05;2.33;;;1.70;;
20344;SDS011;10330;48.816;9.278;2022-11-20T15:58:36;2.45;;;1.55;;
20344;SDS011;10330;48.816;9.278;2022-11-20T16:01:02;4.15;;;1.92;;
20344;SDS011;10330;48.816;9.278;2022-11-20T16:03:29;2.58;;;1.70;;
20344;SDS011;10330;48.816;9.278;2022-11-20T16:05:55;3.03;;;1.90;;
20344;SDS011;10330;48.816;9.278;2022-11-20T16:08:21;1.50;;;1.40;;
20344;SDS011;10330;48.816;9.278;2022-11-20T16:10:56;1.70;;;1.60;;
20344;SDS011;10330;48.816;9.278;2022-11-20T16:13:22;2.85;;;1.67;;
20344;SDS011;10330;48.816;9.278;2022-11-20T16:16:10;1.98;;;1.88;;
20344;SDS011;10330;48.816;9.278;2022-11-20T16:18:46;4.95;;;2.00;;
20344;SDS011;10330;48.816;9.278;2022-11-20T16:21:12;6.75;;;2.30;;
20344;SDS011;10330;48.816;9.278;2022-11-20T16:23:39;3.00;;;1.83;;
20344;SDS011;10330;48.816;9.278;2022-11-20T16:26:12;3.92;;;2.25;;
20344;SDS011;10330;48.816;9.278;2022-11-20T16:28:41;3.72;;;2.00;;
20344;SDS011;10330;48.816;9.278;2022-11-20T16:31:11;3.88;;;2.63;;
20344;SDS011;10330;48.816;9.278;2022-11-20T16:33:41;3.38;;;2.83;;
20344;SDS011;10330;48.816;9.278;2022-11-20T16:36:12;4.28;;;2.08;;
20344;SDS011;10330;48.816;9.278;2022-11-20T16:38:40;2.53;;;2.08;;
20344;SDS011;10330;48.816;9.278;2022-11-20T16:41:07;3.22;;;2.28;;
20344;SDS011;10330;48.816;9.278;2022-11-20T16:43:44;2.70;;;1.90;;
20344;SDS011;10330;48.816;9.278;2022-11-20T16:46:12;4.70;;;2.03;;
20344;SDS011;10330;48.816;9.278;2022-11-20T16:48:39;2.17;;;1.42;;
20344;SDS011;10330;48.816;9.278;2022-11-20T16:51:09;1.60;;;1.50;;
20344;SDS011;10330;48.816;9.278;2022-11-20T16:53:39;3.50;;;1.98;;
20344;SDS011;10330;48.816;9.278;2022-11-20T16:56:12;3.80;;;1.83;;
20344;SDS011;10330;48.816;9.278;2022-11-20T16:58:43;1.60;;;1.50;;
20344;SDS011;10330;48.816;9.278;2022-11-20T17:01:11;1.85;;;1.70;;